KIAB/IAB METAR and TAF weather

Enter ICAO airport designator
Station Type Date Time Source
KIAB METAR 2019/10/15 17:56 UTC NOAA

KIAB 151756Z AUTO 01022G30KT 10SM CLR 18/04 A3001 RMK AO2 PK WND 02032/38 SLP159 60000 T01780037 10179 20129 52013 $


Station Type Date Time Source
KIAB Decoded METAR 2019/10/15 17:56 UTC NOAA

McConnell Air Force Base, KS, United States (KIAB) 37-37N 097-16W
Oct 15, 2019 - 01:56 PM EDT / 2019.10.15 1756 UTC
Wind: from the N (010 degrees) at 25 MPH (22 KT) gusting to 35 MPH (30 KT):0
Visibility: 10 mile(s):0
Sky conditions: clear
Temperature: 64.0 F (17.8 C)
Dew Point: 38.7 F (3.7 C)
Relative Humidity: 39%
Pressure (altimeter): 30.01 in. Hg (1016 hPa)
Pressure tendency: 0.04 inches (1.3 hPa) higher than three hours ago
ob: KIAB 151756Z AUTO 01022G30KT 10SM CLR 18/04 A3001 RMK AO2 PK WND 02032/38 SLP159 60000 T01780037 10179 20129 52013
cycle: 18

Station Type Date Time Source
KIAB TAF 2019/10/15 18:06 UTC NOAA

TAF KIAB 151800Z 1518/1624 01020G30KT 9999 FEW030 FEW180 510043 520344 QNH3000INS
BECMG 1523/1524 35009KT 9999 SKC 510056 520652 QNH3008INS
BECMG 1614/1615 36015KT 9999 SKC QNH3012INS TX19/1520Z TN07/1612Z

Example: see airport list